createdAt,value
2023-02-12T00:01:17.227Z,1.60
2023-02-12T00:03:44.102Z,1.70
2023-02-12T00:06:12.498Z,1.55
2023-02-12T00:08:40.611Z,2.22
2023-02-12T00:11:16.123Z,2.05
2023-02-12T00:13:43.518Z,1.95
2023-02-12T00:16:13.717Z,1.48
2023-02-12T00:18:41.030Z,2.22
2023-02-12T00:21:10.789Z,2.03
2023-02-12T00:23:39.003Z,2.40
2023-02-12T00:26:07.582Z,1.85
2023-02-12T00:28:34.650Z,2.08
2023-02-12T00:31:10.214Z,1.95
2023-02-12T00:33:37.949Z,2.13
2023-02-12T00:36:05.805Z,2.22
2023-02-12T00:38:32.956Z,2.95
2023-02-12T00:40:59.686Z,2.40
2023-02-12T00:43:26.419Z,1.85
2023-02-12T00:45:54.084Z,2.05
2023-02-12T00:48:21.101Z,1.70
2023-02-12T00:50:49.805Z,2.17
2023-02-12T00:53:16.842Z,1.80
2023-02-12T00:55:44.147Z,2.25
2023-02-12T00:58:11.386Z,1.92
2023-02-12T01:00:38.530Z,1.90
2023-02-12T01:03:05.690Z,1.98
2023-02-12T01:05:32.978Z,1.95
2023-02-12T01:08:00.144Z,2.40
2023-02-12T01:10:27.320Z,2.53
2023-02-12T01:12:54.596Z,2.80
2023-02-12T01:15:21.680Z,2.33
2023-02-12T01:17:50.770Z,2.40
2023-02-12T01:20:21.904Z,2.58
2023-02-12T01:22:49.197Z,1.98
2023-02-12T01:25:18.693Z,2.10
2023-02-12T01:27:46.866Z,1.33
2023-02-12T01:30:14.279Z,2.03
2023-02-12T01:32:41.005Z,1.95
2023-02-12T01:35:10.394Z,1.90
2023-02-12T01:37:38.420Z,1.60
2023-02-12T01:40:06.641Z,1.85
2023-02-12T01:42:33.537Z,2.10
2023-02-12T01:45:13.988Z,1.85
2023-02-12T01:47:45.362Z,2.00
2023-02-12T01:50:16.670Z,1.52
2023-02-12T01:52:47.628Z,2.13
2023-02-12T01:55:15.554Z,1.50
2023-02-12T01:57:44.837Z,1.85
2023-02-12T02:00:20.031Z,2.30
2023-02-12T02:02:51.652Z,1.63
2023-02-12T02:05:29.068Z,1.92
2023-02-12T02:07:56.211Z,1.38
2023-02-12T02:10:23.024Z,2.17
2023-02-12T02:13:25.166Z,2.10
2023-02-12T02:15:57.302Z,1.67
2023-02-12T02:18:50.717Z,2.07
2023-02-12T02:21:54.867Z,1.58
2023-02-12T02:27:18.723Z,1.80
2023-02-12T02:30:22.801Z,1.42
2023-02-12T02:35:26.618Z,1.90
2023-02-12T02:38:09.772Z,1.80
2023-02-12T02:40:53.464Z,1.52
2023-02-12T02:43:26.629Z,1.85
2023-02-12T02:45:59.717Z,2.05
2023-02-12T02:48:35.690Z,1.85
2023-02-12T02:51:11.044Z,1.90
2023-02-12T02:53:49.530Z,1.80
2023-02-12T02:56:19.387Z,2.10
2023-02-12T02:59:01.172Z,2.00
2023-02-12T03:01:32.969Z,1.52
2023-02-12T03:04:05.390Z,1.60
2023-02-12T03:06:50.188Z,1.57
2023-02-12T03:09:45.142Z,1.70
2023-02-12T03:12:21.451Z,1.20
2023-02-12T03:14:57.581Z,1.70
2023-02-12T03:17:29.415Z,2.13
2023-02-12T03:20:01.739Z,2.63
2023-02-12T03:22:31.869Z,1.65
2023-02-12T03:25:33.944Z,1.60
2023-02-12T03:28:04.539Z,1.77
2023-02-12T03:30:45.530Z,1.50
2023-02-12T03:33:34.602Z,1.70
2023-02-12T03:36:31.858Z,1.73
2023-02-12T03:39:07.136Z,1.63
2023-02-12T03:41:46.083Z,2.33
2023-02-12T03:44:54.700Z,1.30
2023-02-12T03:47:43.532Z,1.33
2023-02-12T03:50:27.920Z,1.55
2023-02-12T03:52:54.688Z,1.38
2023-02-12T03:55:21.460Z,1.42
2023-02-12T03:58:00.469Z,1.50
2023-02-12T04:00:28.124Z,1.58
2023-02-12T04:02:54.932Z,1.75
2023-02-12T04:05:26.900Z,1.50
2023-02-12T04:07:55.336Z,1.63
2023-02-12T04:10:37.460Z,1.73
2023-02-12T04:13:18.905Z,1.38
2023-02-12T04:16:16.261Z,2.05
2023-02-12T04:18:46.058Z,1.30
2023-02-12T04:21:24.163Z,1.63
2023-02-12T04:24:13.066Z,1.30
2023-02-12T04:27:06.084Z,1.15
2023-02-12T04:29:41.463Z,1.45
2023-02-12T04:32:16.239Z,1.73
2023-02-12T04:35:20.448Z,1.75
2023-02-12T04:37:55.540Z,1.20
2023-02-12T04:40:23.085Z,1.27
2023-02-12T04:42:52.158Z,1.38
2023-02-12T04:45:31.204Z,1.23
2023-02-12T04:47:57.943Z,1.38
2023-02-12T04:50:25.324Z,1.85
2023-02-12T04:52:52.166Z,1.55
2023-02-12T04:55:19.078Z,1.50
2023-02-12T04:57:45.792Z,1.50
2023-02-12T05:00:14.343Z,1.27
2023-02-12T05:02:41.385Z,1.30
2023-02-12T05:05:09.146Z,1.70
2023-02-12T05:07:36.058Z,1.20
2023-02-12T05:10:02.896Z,1.45
2023-02-12T05:12:29.642Z,1.30
2023-02-12T05:14:57.429Z,1.58
2023-02-12T05:17:24.536Z,1.88
2023-02-12T05:19:51.610Z,1.42
2023-02-12T05:22:18.495Z,1.58
2023-02-12T05:24:45.407Z,1.80
2023-02-12T05:27:12.564Z,1.50
2023-02-12T05:29:39.327Z,1.40
2023-02-12T05:32:06.951Z,1.35
2023-02-12T05:34:34.345Z,1.55
2023-02-12T05:37:01.124Z,1.92
2023-02-12T05:39:27.960Z,2.13
2023-02-12T05:41:54.602Z,2.15
2023-02-12T05:44:21.311Z,2.00
2023-02-12T05:46:48.204Z,1.88
2023-02-12T05:49:15.063Z,1.92
2023-02-12T05:51:42.067Z,2.15
2023-02-12T05:54:09.927Z,2.05
2023-02-12T05:56:43.113Z,1.85
2023-02-12T05:59:18.798Z,1.98
2023-02-12T06:01:47.572Z,2.13
2023-02-12T06:04:18.718Z,1.65
2023-02-12T06:06:45.901Z,1.95
2023-02-12T06:09:14.106Z,1.83
2023-02-12T06:11:41.564Z,1.52
2023-02-12T06:14:11.080Z,1.77
2023-02-12T06:16:37.832Z,2.08
2023-02-12T06:19:06.383Z,2.03
2023-02-12T06:21:33.593Z,2.47
2023-02-12T06:24:00.690Z,1.80
2023-02-12T06:26:27.396Z,2.65
2023-02-12T06:28:54.561Z,2.22
2023-02-12T06:31:27.542Z,2.30
2023-02-12T06:33:56.447Z,1.83
2023-02-12T06:36:23.969Z,2.20
2023-02-12T06:38:51.220Z,2.10
2023-02-12T06:41:18.014Z,2.00
2023-02-12T06:43:44.826Z,1.92
2023-02-12T06:46:12.440Z,2.45
2023-02-12T06:48:39.565Z,2.20
2023-02-12T06:51:11.679Z,2.28
2023-02-12T06:53:38.644Z,2.88
2023-02-12T06:56:07.085Z,2.03
2023-02-12T06:58:33.812Z,1.83
2023-02-12T07:01:14.918Z,2.80
2023-02-12T07:03:42.432Z,1.85
2023-02-12T07:06:09.902Z,2.33
2023-02-12T07:08:37.238Z,2.30
2023-02-12T07:11:04.838Z,2.15
2023-02-12T07:13:34.579Z,2.00
2023-02-12T07:16:19.209Z,2.05
2023-02-12T07:18:46.160Z,3.00
2023-02-12T07:21:14.410Z,2.78
2023-02-12T07:23:41.744Z,2.83
2023-02-12T07:26:11.901Z,3.03
2023-02-12T07:28:39.393Z,3.10
2023-02-12T07:31:11.977Z,3.08
2023-02-12T07:33:39.331Z,3.15
2023-02-12T07:36:09.556Z,2.67
2023-02-12T07:38:39.530Z,2.53
2023-02-12T07:41:15.542Z,2.85
2023-02-12T07:43:44.529Z,2.20
2023-02-12T07:46:17.830Z,2.40
2023-02-12T07:48:50.845Z,2.40
2023-02-12T07:51:19.555Z,2.45
2023-02-12T07:53:47.939Z,2.00
2023-02-12T07:56:22.454Z,2.58
2023-02-12T07:59:03.469Z,2.88
2023-02-12T08:01:36.286Z,2.47
2023-02-12T08:04:13.347Z,2.95
2023-02-12T08:06:46.918Z,2.15
2023-02-12T08:09:17.481Z,2.42
2023-02-12T08:11:44.885Z,2.22
2023-02-12T08:14:14.076Z,2.30
2023-02-12T08:16:42.050Z,2.00
2023-02-12T08:19:18.145Z,1.95
2023-02-12T08:21:48.877Z,2.33
2023-02-12T08:24:15.607Z,2.00
2023-02-12T08:26:42.449Z,1.92
2023-02-12T08:29:12.711Z,2.00
2023-02-12T08:31:45.363Z,1.77
2023-02-12T08:34:24.208Z,3.20
2023-02-12T08:36:53.893Z,2.60
2023-02-12T08:39:21.935Z,2.67
2023-02-12T08:41:49.236Z,2.65
2023-02-12T08:44:16.809Z,2.40
2023-02-12T08:46:50.111Z,2.90
2023-02-12T08:51:48.854Z,2.15
2023-02-12T08:54:21.824Z,2.08
2023-02-12T08:56:48.594Z,2.55
2023-02-12T08:59:16.139Z,2.90
2023-02-12T09:01:44.342Z,2.15
2023-02-12T09:04:24.959Z,1.90
2023-02-12T09:06:52.460Z,2.30
2023-02-12T09:09:23.658Z,2.25
2023-02-12T09:11:52.033Z,2.75
2023-02-12T09:14:25.656Z,1.92
2023-02-12T09:16:54.772Z,2.40
2023-02-12T09:19:25.026Z,2.08
2023-02-12T09:22:14.816Z,2.30
2023-02-12T09:24:41.842Z,1.60
2023-02-12T09:27:08.518Z,2.28
2023-02-12T09:29:35.299Z,1.55
2023-02-12T09:32:05.485Z,2.10
2023-02-12T09:34:35.928Z,2.05
2023-02-12T09:37:02.630Z,2.00
2023-02-12T09:39:30.720Z,1.90
2023-02-12T09:42:20.275Z,1.92
2023-02-12T09:45:08.824Z,1.58
2023-02-12T09:47:45.349Z,3.55
2023-02-12T09:50:44.258Z,1.50
2023-02-12T09:53:18.448Z,1.67
2023-02-12T09:56:24.314Z,2.08
2023-02-12T09:59:00.201Z,2.45
2023-02-12T10:01:28.227Z,2.20
2023-02-12T10:03:56.058Z,2.58
2023-02-12T10:06:56.095Z,2.25
2023-02-12T10:10:12.737Z,1.98
2023-02-12T10:13:05.148Z,2.33
2023-02-12T10:15:46.718Z,1.95
2023-02-12T10:18:36.822Z,1.65
2023-02-12T10:21:27.141Z,1.60
2023-02-12T10:24:06.358Z,1.48
2023-02-12T10:26:41.203Z,1.27
2023-02-12T10:29:18.822Z,1.55
2023-02-12T10:32:11.519Z,1.35
2023-02-12T10:34:41.364Z,1.73
2023-02-12T10:37:29.850Z,1.50
2023-02-12T10:40:05.397Z,1.40
2023-02-12T10:42:40.738Z,1.52
2023-02-12T10:45:17.794Z,1.75
2023-02-12T10:47:46.115Z,1.67
2023-02-12T10:50:38.488Z,1.27
2023-02-12T10:53:05.175Z,1.55
2023-02-12T10:55:34.056Z,1.55
2023-02-12T10:58:03.183Z,1.70
2023-02-12T11:00:36.549Z,1.83
2023-02-12T11:05:36.688Z,1.65
2023-02-12T11:08:04.422Z,1.70
2023-02-12T11:10:36.715Z,1.52
2023-02-12T11:13:04.063Z,1.05
2023-02-12T11:15:46.443Z,1.75
2023-02-12T11:18:26.773Z,1.33
2023-02-12T11:21:02.774Z,1.60
2023-02-12T11:23:38.815Z,1.17
2023-02-12T11:26:06.653Z,1.58
2023-02-12T11:28:36.394Z,1.42
2023-02-12T11:31:33.819Z,1.98
2023-02-12T11:34:16.422Z,1.25
2023-02-12T11:36:49.629Z,1.52
2023-02-12T11:39:32.522Z,1.45
2023-02-12T11:42:24.221Z,1.70
2023-02-12T11:44:56.968Z,2.20
2023-02-12T11:47:33.824Z,1.98
2023-02-12T11:50:26.267Z,1.52
2023-02-12T11:52:57.473Z,1.80
2023-02-12T11:55:33.382Z,1.70
2023-02-12T11:58:21.907Z,1.50
2023-02-12T12:01:10.360Z,1.95
2023-02-12T12:03:49.361Z,1.45
2023-02-12T12:06:25.877Z,1.60
2023-02-12T12:09:10.950Z,1.65
2023-02-12T12:11:43.958Z,2.15
2023-02-12T12:14:22.442Z,1.75
2023-02-12T12:17:21.713Z,1.60
2023-02-12T12:19:58.682Z,1.50
2023-02-12T12:22:40.486Z,1.60
2023-02-12T12:25:31.334Z,1.70
2023-02-12T12:28:12.888Z,1.48
2023-02-12T12:30:59.612Z,1.20
2023-02-12T12:33:51.309Z,1.42
2023-02-12T12:36:55.166Z,1.80
2023-02-12T12:39:44.812Z,1.20
2023-02-12T12:42:42.673Z,1.85
2023-02-12T12:45:30.868Z,1.50
2023-02-12T12:48:18.846Z,1.83
2023-02-12T12:51:10.336Z,1.27
2023-02-12T12:54:16.916Z,1.23
2023-02-12T12:56:59.183Z,3.38
2023-02-12T12:59:37.857Z,2.58
2023-02-12T13:02:39.148Z,3.30
2023-02-12T13:05:51.486Z,2.70
2023-02-12T13:08:39.410Z,2.58
2023-02-12T13:11:16.794Z,2.20
2023-02-12T13:13:50.707Z,2.10
2023-02-12T13:16:28.210Z,2.85
2023-02-12T13:19:06.501Z,2.80
2023-02-12T13:21:50.651Z,2.47
2023-02-12T13:24:29.993Z,2.55
2023-02-12T13:27:08.387Z,2.50
2023-02-12T13:29:44.073Z,2.38
2023-02-12T13:32:22.736Z,2.50
2023-02-12T13:34:50.716Z,1.80
2023-02-12T13:37:20.875Z,2.33
2023-02-12T13:39:50.256Z,2.42
2023-02-12T13:42:40.425Z,2.60
2023-02-12T13:45:15.280Z,2.33
2023-02-12T13:48:15.831Z,1.98
2023-02-12T13:50:58.269Z,2.50
2023-02-12T13:53:45.377Z,2.47
2023-02-12T13:56:37.738Z,2.70
2023-02-12T13:59:24.409Z,2.40
2023-02-12T14:01:51.369Z,2.58
2023-02-12T14:04:26.866Z,3.30
2023-02-12T14:06:59.235Z,2.17
2023-02-12T14:09:40.557Z,2.60
2023-02-12T14:12:18.418Z,2.28
2023-02-12T14:14:49.508Z,2.33
2023-02-12T14:17:28.473Z,2.45
2023-02-12T14:20:07.371Z,2.67
2023-02-12T14:22:34.243Z,1.50
2023-02-12T14:25:15.987Z,1.80
2023-02-12T14:27:44.582Z,2.10
2023-02-12T14:30:11.630Z,1.63
2023-02-12T14:32:57.963Z,2.50
2023-02-12T14:35:30.718Z,1.98
2023-02-12T14:38:00.109Z,2.00
2023-02-12T14:40:46.763Z,2.47
2023-02-12T14:43:33.778Z,2.35
2023-02-12T14:46:22.286Z,1.83
2023-02-12T14:48:48.963Z,2.20
2023-02-12T14:51:33.094Z,1.83
2023-02-12T14:54:01.250Z,1.70
2023-02-12T14:56:28.315Z,1.90
2023-02-12T14:58:58.636Z,1.60
2023-02-12T15:01:32.591Z,1.83
2023-02-12T15:04:12.791Z,1.58
2023-02-12T15:06:52.636Z,2.20
2023-02-12T15:09:31.938Z,1.73
2023-02-12T15:12:07.956Z,2.28
2023-02-12T15:14:42.950Z,1.67
2023-02-12T15:17:17.244Z,2.35
2023-02-12T15:19:59.898Z,2.10
2023-02-12T15:22:40.118Z,2.50
2023-02-12T15:25:29.152Z,3.00
2023-02-12T15:28:21.506Z,3.03
2023-02-12T15:30:48.520Z,2.20
2023-02-12T15:33:26.746Z,2.40
2023-02-12T15:35:58.180Z,2.50
2023-02-12T15:38:35.513Z,2.10
2023-02-12T15:41:03.980Z,2.88
2023-02-12T15:43:35.002Z,2.10
2023-02-12T15:46:04.140Z,2.30
2023-02-12T15:48:33.176Z,2.05
2023-02-12T15:51:17.855Z,2.13
2023-02-12T15:53:44.995Z,1.95
2023-02-12T15:56:21.208Z,2.00
2023-02-12T15:58:52.335Z,2.30
2023-02-12T16:01:22.319Z,2.42
2023-02-12T16:03:54.044Z,2.55
2023-02-12T16:06:22.842Z,2.95
2023-02-12T16:09:14.697Z,2.20
2023-02-12T16:11:44.433Z,2.80
2023-02-12T16:14:39.521Z,2.75
2023-02-12T16:17:25.047Z,2.53
2023-02-12T16:19:57.697Z,2.20
2023-02-12T16:22:37.662Z,2.95
2023-02-12T16:25:14.868Z,2.38
2023-02-12T16:27:48.643Z,1.98
2023-02-12T16:30:31.075Z,1.98
2023-02-12T16:32:59.269Z,2.60
2023-02-12T16:35:35.649Z,2.30
2023-02-12T16:38:27.306Z,2.10
2023-02-12T16:41:20.748Z,2.75
2023-02-12T16:44:16.212Z,2.55
2023-02-12T16:46:52.571Z,3.38
2023-02-12T16:49:22.842Z,2.20
2023-02-12T16:51:50.505Z,2.67
2023-02-12T16:54:34.955Z,3.10
2023-02-12T16:57:02.102Z,2.40
2023-02-12T16:59:29.590Z,2.53
2023-02-12T17:02:15.730Z,2.00
2023-02-12T17:04:42.694Z,2.72
2023-02-12T17:07:25.038Z,2.28
2023-02-12T17:09:51.742Z,2.50
2023-02-12T17:12:22.173Z,2.15
2023-02-12T17:14:49.648Z,2.22
2023-02-12T17:17:16.590Z,2.60
2023-02-12T17:19:43.362Z,3.55
2023-02-12T17:22:22.517Z,2.03
2023-02-12T17:24:51.507Z,1.90
2023-02-12T17:27:19.029Z,1.73
2023-02-12T17:29:45.999Z,1.75
2023-02-12T17:32:12.891Z,1.95
2023-02-12T17:34:48.105Z,1.70
2023-02-12T17:37:17.060Z,1.80
2023-02-12T17:39:43.909Z,1.63
2023-02-12T17:42:11.557Z,1.58
2023-02-12T17:44:39.883Z,1.67
2023-02-12T17:47:06.655Z,1.55
2023-02-12T17:49:35.349Z,1.20
2023-02-12T17:52:02.622Z,1.70
2023-02-12T17:54:29.753Z,1.58
2023-02-12T17:56:56.433Z,1.73
2023-02-12T17:59:23.237Z,2.00
2023-02-12T18:01:49.923Z,2.03
2023-02-12T18:04:16.795Z,1.50
2023-02-12T18:06:43.529Z,1.77
2023-02-12T18:09:10.199Z,1.45
2023-02-12T18:11:40.199Z,1.73
2023-02-12T18:14:06.930Z,1.60
2023-02-12T18:16:34.960Z,2.10
2023-02-12T18:19:04.361Z,2.13
2023-02-12T18:21:31.377Z,2.47
2023-02-12T18:23:58.197Z,1.83
2023-02-12T18:26:24.956Z,1.77
2023-02-12T18:28:53.703Z,1.45
2023-02-12T18:31:20.950Z,1.80
2023-02-12T18:33:47.879Z,1.90
2023-02-12T18:36:17.587Z,1.83
2023-02-12T18:38:46.549Z,1.50
2023-02-12T18:41:16.724Z,1.80
2023-02-12T18:43:44.128Z,1.60
2023-02-12T18:46:17.462Z,1.80
2023-02-12T18:48:44.774Z,1.63
2023-02-12T18:51:16.698Z,2.17
2023-02-12T18:53:43.857Z,1.48
2023-02-12T18:56:12.288Z,1.90
2023-02-12T18:58:39.538Z,2.13
2023-02-12T19:01:19.925Z,1.98
2023-02-12T19:03:49.357Z,1.90
2023-02-12T19:06:16.126Z,2.45
2023-02-12T19:08:42.938Z,1.80
2023-02-12T19:11:11.229Z,2.13
2023-02-12T19:13:38.633Z,1.73
2023-02-12T19:16:10.321Z,2.55
2023-02-12T19:18:37.059Z,2.20
2023-02-12T19:21:11.744Z,2.03
2023-02-12T19:23:39.157Z,2.20
2023-02-12T19:26:07.850Z,2.28
2023-02-12T19:28:35.602Z,1.92
2023-02-12T19:31:15.956Z,1.85
2023-02-12T19:33:43.633Z,1.80
2023-02-12T19:36:12.740Z,2.45
2023-02-12T19:38:39.614Z,2.80
2023-02-12T19:41:09.228Z,2.40
2023-02-12T19:43:36.494Z,2.20
2023-02-12T19:46:08.205Z,2.03
2023-02-12T19:48:35.949Z,2.33
2023-02-12T19:51:03.265Z,2.45
2023-02-12T19:53:30.368Z,2.45
2023-02-12T19:56:01.588Z,2.28
2023-02-12T19:58:29.544Z,2.53
2023-02-12T20:00:56.775Z,2.50
2023-02-12T20:03:23.882Z,2.78
2023-02-12T20:05:55.002Z,2.75
2023-02-12T20:08:22.020Z,2.28
2023-02-12T20:10:48.871Z,3.28
2023-02-12T20:13:18.808Z,2.42
2023-02-12T20:15:45.571Z,2.95
2023-02-12T20:18:12.528Z,2.42
2023-02-12T20:20:40.019Z,2.80
2023-02-12T20:23:06.846Z,3.70
2023-02-12T20:25:33.526Z,2.92
2023-02-12T20:28:00.268Z,2.55
2023-02-12T20:30:27.051Z,3.03
2023-02-12T20:32:53.877Z,3.25
2023-02-12T20:35:20.683Z,2.72
2023-02-12T20:37:47.438Z,3.13
2023-02-12T20:40:14.345Z,3.40
2023-02-12T20:42:41.148Z,2.75
2023-02-12T20:45:08.598Z,3.40
2023-02-12T20:47:35.577Z,3.10
2023-02-12T20:50:02.386Z,3.40
2023-02-12T20:52:29.632Z,3.00
2023-02-12T20:54:56.378Z,3.05
2023-02-12T20:57:23.133Z,3.03
2023-02-12T20:59:50.141Z,3.35
2023-02-12T21:02:18.484Z,3.08
2023-02-12T21:04:45.409Z,4.15
2023-02-12T21:07:12.159Z,2.95
2023-02-12T21:09:38.905Z,3.38
2023-02-12T21:12:05.703Z,3.78
2023-02-12T21:14:32.553Z,3.20
2023-02-12T21:16:59.482Z,3.40
2023-02-12T21:19:27.000Z,3.38
2023-02-12T21:21:54.516Z,4.50
2023-02-12T21:24:25.554Z,3.50
2023-02-12T21:26:53.559Z,3.67
2023-02-12T21:29:21.532Z,4.47
2023-02-12T21:31:50.170Z,3.58
2023-02-12T21:34:20.349Z,3.53
2023-02-12T21:36:49.124Z,3.75
2023-02-12T21:39:24.515Z,3.95
2023-02-12T21:41:54.519Z,3.85
2023-02-12T21:44:22.701Z,4.63
2023-02-12T21:46:49.824Z,3.92
2023-02-12T21:49:24.596Z,4.43
2023-02-12T21:51:53.314Z,3.92
2023-02-12T21:54:20.888Z,3.85
2023-02-12T21:56:49.035Z,4.32
2023-02-12T21:59:16.521Z,3.75
2023-02-12T22:01:46.795Z,3.75
2023-02-12T22:04:13.940Z,4.30
2023-02-12T22:06:43.372Z,4.25
2023-02-12T22:09:11.200Z,4.00
2023-02-12T22:11:39.101Z,4.30
2023-02-12T22:14:08.103Z,3.95
2023-02-12T22:16:35.892Z,3.88
2023-02-12T22:19:03.296Z,4.55
2023-02-12T22:21:33.266Z,4.43
2023-02-12T22:24:05.160Z,4.78
2023-02-12T22:26:32.892Z,5.47
2023-02-12T22:29:02.909Z,4.90
2023-02-12T22:31:32.519Z,4.57
2023-02-12T22:34:02.461Z,4.35
2023-02-12T22:36:30.010Z,5.75
2023-02-12T22:38:59.908Z,5.47
2023-02-12T22:41:28.052Z,4.82
2023-02-12T22:43:54.949Z,4.78
2023-02-12T22:46:21.744Z,4.68
2023-02-12T22:48:48.501Z,4.82
2023-02-12T22:51:21.868Z,4.50
2023-02-12T22:53:48.907Z,4.70
2023-02-12T22:56:16.170Z,4.72
2023-02-12T22:58:43.066Z,5.22
2023-02-12T23:01:15.442Z,5.55
2023-02-12T23:03:42.996Z,5.65
2023-02-12T23:06:18.256Z,4.60
2023-02-12T23:08:52.662Z,5.10
2023-02-12T23:11:20.256Z,5.10
2023-02-12T23:13:47.464Z,5.28
2023-02-12T23:16:14.212Z,5.00
2023-02-12T23:18:40.915Z,5.32
2023-02-12T23:21:07.688Z,5.10
2023-02-12T23:23:34.559Z,4.97
2023-02-12T23:26:01.634Z,6.03
2023-02-12T23:28:28.462Z,6.43
2023-02-12T23:30:55.567Z,6.07
2023-02-12T23:33:22.514Z,5.80
2023-02-12T23:35:49.799Z,5.38
2023-02-12T23:38:17.381Z,5.85
2023-02-12T23:40:44.589Z,5.35
2023-02-12T23:43:11.429Z,5.30
2023-02-12T23:45:38.294Z,5.50
2023-02-12T23:48:05.189Z,5.20
2023-02-12T23:50:32.031Z,4.97
2023-02-12T23:52:59.100Z,5.47
2023-02-12T23:55:25.988Z,6.07
2023-02-12T23:57:52.698Z,6.18
